sensor_id;sensor_type;location;lat;lon;timestamp;temperature;humidity
41427;DHT22;27171;51.812;19.514;2023-01-19T00:02:41;2.10;99.90
41427;DHT22;27171;51.812;19.514;2023-01-19T00:05:43;2.10;99.90
41427;DHT22;27171;51.812;19.514;2023-01-19T00:08:44;2.10;99.90
41427;DHT22;27171;51.812;19.514;2023-01-19T00:11:45;2.10;99.90
41427;DHT22;27171;51.812;19.514;2023-01-19T00:14:46;2.00;99.90
41427;DHT22;27171;51.812;19.514;2023-01-19T00:17:47;2.00;99.90
41427;DHT22;27171;51.812;19.514;2023-01-19T00:20:48;2.00;99.90
41427;DHT22;27171;51.812;19.514;2023-01-19T00:23:50;2.00;99.90
41427;DHT22;27171;51.812;19.514;2023-01-19T00:26:51;2.00;99.90
41427;DHT22;27171;51.812;19.514;2023-01-19T00:29:52;2.00;99.90
41427;DHT22;27171;51.812;19.514;2023-01-19T00:32:53;2.00;99.90
41427;DHT22;27171;51.812;19.514;2023-01-19T00:35:54;2.10;99.90
41427;DHT22;27171;51.812;19.514;2023-01-19T00:38:55;2.10;99.90
41427;DHT22;27171;51.812;19.514;2023-01-19T00:41:56;2.10;99.90
41427;DHT22;27171;51.812;19.514;2023-01-19T00:44:57;2.10;99.90
41427;DHT22;27171;51.812;19.514;2023-01-19T00:47:58;2.10;99.90
41427;DHT22;27171;51.812;19.514;2023-01-19T00:50:59;2.10;99.90
41427;DHT22;27171;51.812;19.514;2023-01-19T00:54:00;2.10;99.90
41427;DHT22;27171;51.812;19.514;2023-01-19T00:57:02;2.10;99.90
41427;DHT22;27171;51.812;19.514;2023-01-19T01:00:05;2.20;99.90
41427;DHT22;27171;51.812;19.514;2023-01-19T01:03:06;2.20;99.90
41427;DHT22;27171;51.812;19.514;2023-01-19T01:06:07;2.20;99.90
41427;DHT22;27171;51.812;19.514;2023-01-19T01:09:08;2.20;99.90
41427;DHT22;27171;51.812;19.514;2023-01-19T01:12:10;2.20;99.90
41427;DHT22;27171;51.812;19.514;2023-01-19T01:15:12;2.20;99.90
41427;DHT22;27171;51.812;19.514;2023-01-19T01:18:13;2.20;99.90
41427;DHT22;27171;51.812;19.514;2023-01-19T01:21:14;2.20;99.90
41427;DHT22;27171;51.812;19.514;2023-01-19T01:24:15;2.20;99.90
41427;DHT22;27171;51.812;19.514;2023-01-19T01:27:16;2.20;99.90
41427;DHT22;27171;51.812;19.514;2023-01-19T01:30:18;2.20;99.90
41427;DHT22;27171;51.812;19.514;2023-01-19T01:33:20;2.20;99.90
41427;DHT22;27171;51.812;19.514;2023-01-19T01:36:21;2.30;99.90
41427;DHT22;27171;51.812;19.514;2023-01-19T01:39:22;2.30;99.90
41427;DHT22;27171;51.812;19.514;2023-01-19T01:42:28;2.30;99.90
41427;DHT22;27171;51.812;19.514;2023-01-19T01:45:37;2.30;99.90
41427;DHT22;27171;51.812;19.514;2023-01-19T01:48:40;2.30;99.90
41427;DHT22;27171;51.812;19.514;2023-01-19T01:51:46;2.40;99.90
41427;DHT22;27171;51.812;19.514;2023-01-19T01:54:48;2.40;99.90
41427;DHT22;27171;51.812;19.514;2023-01-19T01:57:52;2.40;99.90
41427;DHT22;27171;51.812;19.514;2023-01-19T02:00:54;2.40;99.90
41427;DHT22;27171;51.812;19.514;2023-01-19T02:03:55;2.50;99.90
41427;DHT22;27171;51.812;19.514;2023-01-19T02:06:57;2.50;99.90
41427;DHT22;27171;51.812;19.514;2023-01-19T02:09:58;2.50;99.90
41427;DHT22;27171;51.812;19.514;2023-01-19T02:12:59;2.50;99.90
41427;DHT22;27171;51.812;19.514;2023-01-19T02:16:04;2.50;99.90
41427;DHT22;27171;51.812;19.514;2023-01-19T02:19:08;2.50;99.90
41427;DHT22;27171;51.812;19.514;2023-01-19T02:22:30;2.50;99.90
41427;DHT22;27171;51.812;19.514;2023-01-19T02:25:33;2.60;99.90
41427;DHT22;27171;51.812;19.514;2023-01-19T02:28:40;2.60;99.90
41427;DHT22;27171;51.812;19.514;2023-01-19T02:31:41;2.60;99.90
41427;DHT22;27171;51.812;19.514;2023-01-19T02:34:42;2.60;99.90
41427;DHT22;27171;51.812;19.514;2023-01-19T02:37:43;2.60;99.90
41427;DHT22;27171;51.812;19.514;2023-01-19T02:40:45;2.60;99.90
41427;DHT22;27171;51.812;19.514;2023-01-19T02:43:47;2.60;99.90
41427;DHT22;27171;51.812;19.514;2023-01-19T02:46:52;2.50;99.90
41427;DHT22;27171;51.812;19.514;2023-01-19T02:49:58;2.50;99.90
41427;DHT22;27171;51.812;19.514;2023-01-19T02:54:06;2.40;99.90
41427;DHT22;27171;51.812;19.514;2023-01-19T03:00:20;2.40;99.90
41427;DHT22;27171;51.812;19.514;2023-01-19T03:03:38;2.30;99.90
41427;DHT22;27171;51.812;19.514;2023-01-19T03:06:58;2.20;99.90
41427;DHT22;27171;51.812;19.514;2023-01-19T03:13:28;2.10;99.90
41427;DHT22;27171;51.812;19.514;2023-01-19T03:16:40;2.10;99.90
41427;DHT22;27171;51.812;19.514;2023-01-19T03:19:45;2.00;99.90
41427;DHT22;27171;51.812;19.514;2023-01-19T03:22:51;1.90;99.90
41427;DHT22;27171;51.812;19.514;2023-01-19T03:25:54;1.90;99.90
41427;DHT22;27171;51.812;19.514;2023-01-19T03:28:59;1.90;99.90
41427;DHT22;27171;51.812;19.514;2023-01-19T03:32:10;1.90;99.90
41427;DHT22;27171;51.812;19.514;2023-01-19T03:35:13;1.80;99.90
41427;DHT22;27171;51.812;19.514;2023-01-19T03:38:18;1.80;99.90
41427;DHT22;27171;51.812;19.514;2023-01-19T03:41:23;1.80;99.90
41427;DHT22;27171;51.812;19.514;2023-01-19T03:44:26;1.90;99.90
41427;DHT22;27171;51.812;19.514;2023-01-19T03:47:28;1.90;99.90
41427;DHT22;27171;51.812;19.514;2023-01-19T03:50:30;1.90;99.90
41427;DHT22;27171;51.812;19.514;2023-01-19T03:53:31;1.90;99.90
41427;DHT22;27171;51.812;19.514;2023-01-19T03:56:32;1.80;99.90
41427;DHT22;27171;51.812;19.514;2023-01-19T03:59:33;1.80;99.90
41427;DHT22;27171;51.812;19.514;2023-01-19T04:02:34;1.80;99.90
41427;DHT22;27171;51.812;19.514;2023-01-19T04:05:35;1.80;99.90
41427;DHT22;27171;51.812;19.514;2023-01-19T04:08:37;1.80;99.90
41427;DHT22;27171;51.812;19.514;2023-01-19T04:11:38;1.80;99.90
41427;DHT22;27171;51.812;19.514;2023-01-19T04:14:39;1.80;99.90
41427;DHT22;27171;51.812;19.514;2023-01-19T04:17:40;1.80;99.90
41427;DHT22;27171;51.812;19.514;2023-01-19T04:20:41;1.80;99.90
41427;DHT22;27171;51.812;19.514;2023-01-19T04:23:42;1.80;99.90
41427;DHT22;27171;51.812;19.514;2023-01-19T04:26:43;1.80;99.90
41427;DHT22;27171;51.812;19.514;2023-01-19T04:29:44;1.70;99.90
41427;DHT22;27171;51.812;19.514;2023-01-19T04:32:45;1.70;99.90
41427;DHT22;27171;51.812;19.514;2023-01-19T04:35:47;1.80;99.90
41427;DHT22;27171;51.812;19.514;2023-01-19T04:38:49;1.80;99.90
41427;DHT22;27171;51.812;19.514;2023-01-19T04:41:50;1.80;99.90
41427;DHT22;27171;51.812;19.514;2023-01-19T04:44:51;1.80;99.90
41427;DHT22;27171;51.812;19.514;2023-01-19T04:47:52;1.80;99.90
41427;DHT22;27171;51.812;19.514;2023-01-19T04:50:53;1.90;99.90
41427;DHT22;27171;51.812;19.514;2023-01-19T04:53:54;1.90;99.90
41427;DHT22;27171;51.812;19.514;2023-01-19T04:56:55;1.90;99.90
41427;DHT22;27171;51.812;19.514;2023-01-19T04:59:57;1.90;99.90
41427;DHT22;27171;51.812;19.514;2023-01-19T05:02:58;2.00;99.90
41427;DHT22;27171;51.812;19.514;2023-01-19T05:05:59;2.00;99.90
41427;DHT22;27171;51.812;19.514;2023-01-19T05:09:00;2.00;99.90
41427;DHT22;27171;51.812;19.514;2023-01-19T05:12:01;2.00;99.90
41427;DHT22;27171;51.812;19.514;2023-01-19T05:15:03;2.00;99.90
41427;DHT22;27171;51.812;19.514;2023-01-19T05:18:05;2.00;99.90
41427;DHT22;27171;51.812;19.514;2023-01-19T05:21:06;2.00;99.90
41427;DHT22;27171;51.812;19.514;2023-01-19T05:24:07;2.10;99.90
41427;DHT22;27171;51.812;19.514;2023-01-19T05:27:09;2.10;99.90
41427;DHT22;27171;51.812;19.514;2023-01-19T05:30:11;2.20;99.90
41427;DHT22;27171;51.812;19.514;2023-01-19T05:33:12;2.20;99.90
41427;DHT22;27171;51.812;19.514;2023-01-19T05:36:13;2.20;99.90
41427;DHT22;27171;51.812;19.514;2023-01-19T05:39:14;2.20;99.90
41427;DHT22;27171;51.812;19.514;2023-01-19T05:42:15;2.20;99.90
41427;DHT22;27171;51.812;19.514;2023-01-19T05:45:16;2.20;99.90
41427;DHT22;27171;51.812;19.514;2023-01-19T05:48:17;2.20;99.90
41427;DHT22;27171;51.812;19.514;2023-01-19T05:51:18;2.20;99.90
41427;DHT22;27171;51.812;19.514;2023-01-19T05:54:19;2.20;99.90
41427;DHT22;27171;51.812;19.514;2023-01-19T05:57:21;2.20;99.90
41427;DHT22;27171;51.812;19.514;2023-01-19T06:00:22;2.20;99.90
41427;DHT22;27171;51.812;19.514;2023-01-19T06:03:24;2.30;99.90
41427;DHT22;27171;51.812;19.514;2023-01-19T06:06:25;2.30;99.90
41427;DHT22;27171;51.812;19.514;2023-01-19T06:09:26;2.30;99.90
41427;DHT22;27171;51.812;19.514;2023-01-19T06:12:27;2.20;99.90
41427;DHT22;27171;51.812;19.514;2023-01-19T06:15:28;2.30;99.90
41427;DHT22;27171;51.812;19.514;2023-01-19T06:18:29;2.30;99.90
41427;DHT22;27171;51.812;19.514;2023-01-19T06:21:30;2.30;99.90
41427;DHT22;27171;51.812;19.514;2023-01-19T06:24:31;2.30;99.90
41427;DHT22;27171;51.812;19.514;2023-01-19T06:27:32;2.30;99.90
41427;DHT22;27171;51.812;19.514;2023-01-19T06:30:33;2.20;99.90
41427;DHT22;27171;51.812;19.514;2023-01-19T06:33:34;2.20;99.90
41427;DHT22;27171;51.812;19.514;2023-01-19T06:36:35;2.20;99.90
41427;DHT22;27171;51.812;19.514;2023-01-19T06:39:37;2.20;99.90
41427;DHT22;27171;51.812;19.514;2023-01-19T06:42:38;2.20;99.90
41427;DHT22;27171;51.812;19.514;2023-01-19T06:45:39;2.10;99.90
41427;DHT22;27171;51.812;19.514;2023-01-19T06:48:40;2.10;99.90
41427;DHT22;27171;51.812;19.514;2023-01-19T06:51:41;2.10;99.90
41427;DHT22;27171;51.812;19.514;2023-01-19T06:54:43;2.00;99.90
41427;DHT22;27171;51.812;19.514;2023-01-19T06:57:44;2.00;99.90
41427;DHT22;27171;51.812;19.514;2023-01-19T07:00:45;2.00;99.90
41427;DHT22;27171;51.812;19.514;2023-01-19T07:03:47;1.90;99.90
41427;DHT22;27171;51.812;19.514;2023-01-19T07:06:48;1.90;99.90
41427;DHT22;27171;51.812;19.514;2023-01-19T07:09:49;1.90;99.90
41427;DHT22;27171;51.812;19.514;2023-01-19T07:12:50;1.90;99.90
41427;DHT22;27171;51.812;19.514;2023-01-19T07:15:52;1.80;99.90
41427;DHT22;27171;51.812;19.514;2023-01-19T07:18:53;1.80;99.90
41427;DHT22;27171;51.812;19.514;2023-01-19T07:21:54;1.80;99.90
41427;DHT22;27171;51.812;19.514;2023-01-19T07:24:55;1.80;99.90
41427;DHT22;27171;51.812;19.514;2023-01-19T07:27:59;1.70;99.90
41427;DHT22;27171;51.812;19.514;2023-01-19T07:31:00;1.70;99.90
41427;DHT22;27171;51.812;19.514;2023-01-19T07:34:01;1.70;99.90
41427;DHT22;27171;51.812;19.514;2023-01-19T07:37:02;1.70;99.90
41427;DHT22;27171;51.812;19.514;2023-01-19T07:40:04;1.70;99.90
41427;DHT22;27171;51.812;19.514;2023-01-19T07:43:05;1.70;99.90
41427;DHT22;27171;51.812;19.514;2023-01-19T07:46:06;1.70;99.90
41427;DHT22;27171;51.812;19.514;2023-01-19T07:49:07;1.70;99.90
41427;DHT22;27171;51.812;19.514;2023-01-19T07:52:09;1.80;99.90
41427;DHT22;27171;51.812;19.514;2023-01-19T07:55:10;1.80;99.90
41427;DHT22;27171;51.812;19.514;2023-01-19T07:58:11;1.70;99.90
41427;DHT22;27171;51.812;19.514;2023-01-19T08:01:12;1.80;99.90
41427;DHT22;27171;51.812;19.514;2023-01-19T08:04:13;1.70;99.90
41427;DHT22;27171;51.812;19.514;2023-01-19T08:07:14;1.70;99.90
41427;DHT22;27171;51.812;19.514;2023-01-19T08:10:16;1.70;99.90
41427;DHT22;27171;51.812;19.514;2023-01-19T08:13:17;1.80;99.90
41427;DHT22;27171;51.812;19.514;2023-01-19T08:16:18;1.80;99.90
41427;DHT22;27171;51.812;19.514;2023-01-19T08:19:19;1.80;99.90
41427;DHT22;27171;51.812;19.514;2023-01-19T08:22:20;1.80;99.90
41427;DHT22;27171;51.812;19.514;2023-01-19T08:25:21;1.80;99.90
41427;DHT22;27171;51.812;19.514;2023-01-19T08:28:22;1.80;99.90
41427;DHT22;27171;51.812;19.514;2023-01-19T08:31:25;1.70;99.90
41427;DHT22;27171;51.812;19.514;2023-01-19T08:34:26;1.70;99.90
41427;DHT22;27171;51.812;19.514;2023-01-19T08:37:27;1.70;99.90
41427;DHT22;27171;51.812;19.514;2023-01-19T08:40:29;1.70;99.90
41427;DHT22;27171;51.812;19.514;2023-01-19T08:43:31;1.70;99.90
41427;DHT22;27171;51.812;19.514;2023-01-19T08:46:32;1.70;99.90
41427;DHT22;27171;51.812;19.514;2023-01-19T08:49:33;1.70;99.90
41427;DHT22;27171;51.812;19.514;2023-01-19T08:52:34;1.70;99.90
41427;DHT22;27171;51.812;19.514;2023-01-19T08:55:35;1.70;99.90
41427;DHT22;27171;51.812;19.514;2023-01-19T08:58:36;1.70;99.90
41427;DHT22;27171;51.812;19.514;2023-01-19T09:01:37;1.60;99.90
41427;DHT22;27171;51.812;19.514;2023-01-19T09:04:38;1.60;99.90
41427;DHT22;27171;51.812;19.514;2023-01-19T09:07:39;1.60;99.90
41427;DHT22;27171;51.812;19.514;2023-01-19T09:10:44;1.50;99.90
41427;DHT22;27171;51.812;19.514;2023-01-19T09:13:46;1.50;99.90
41427;DHT22;27171;51.812;19.514;2023-01-19T09:16:47;1.50;99.90
41427;DHT22;27171;51.812;19.514;2023-01-19T09:19:48;1.40;99.90
41427;DHT22;27171;51.812;19.514;2023-01-19T09:22:49;1.40;99.90
41427;DHT22;27171;51.812;19.514;2023-01-19T09:25:56;1.40;99.90
41427;DHT22;27171;51.812;19.514;2023-01-19T09:28:57;1.40;99.90
41427;DHT22;27171;51.812;19.514;2023-01-19T09:31:58;1.50;99.90
41427;DHT22;27171;51.812;19.514;2023-01-19T09:34:59;1.50;99.90
41427;DHT22;27171;51.812;19.514;2023-01-19T09:38:00;1.50;99.90
41427;DHT22;27171;51.812;19.514;2023-01-19T09:41:01;1.50;99.90
41427;DHT22;27171;51.812;19.514;2023-01-19T09:44:02;1.50;99.90
41427;DHT22;27171;51.812;19.514;2023-01-19T09:47:13;1.50;99.90
41427;DHT22;27171;51.812;19.514;2023-01-19T09:50:35;1.50;99.90
41427;DHT22;27171;51.812;19.514;2023-01-19T09:54:23;1.50;99.90
41427;DHT22;27171;51.812;19.514;2023-01-19T09:57:15;1.50;99.90
41427;DHT22;27171;51.812;19.514;2023-01-19T10:00:17;1.50;99.90
41427;DHT22;27171;51.812;19.514;2023-01-19T10:03:18;1.50;99.90
41427;DHT22;27171;51.812;19.514;2023-01-19T10:06:20;1.50;99.90
41427;DHT22;27171;51.812;19.514;2023-01-19T10:09:30;1.50;99.90
41427;DHT22;27171;51.812;19.514;2023-01-19T10:22:22;1.50;99.90
41427;DHT22;27171;51.812;19.514;2023-01-19T10:25:23;1.50;99.90
41427;DHT22;27171;51.812;19.514;2023-01-19T10:28:25;1.50;99.90
41427;DHT22;27171;51.812;19.514;2023-01-19T10:31:27;1.50;99.90
41427;DHT22;27171;51.812;19.514;2023-01-19T10:34:28;1.50;99.90
41427;DHT22;27171;51.812;19.514;2023-01-19T10:37:32;1.40;99.90
41427;DHT22;27171;51.812;19.514;2023-01-19T10:40:41;1.40;99.90
41427;DHT22;27171;51.812;19.514;2023-01-19T10:43:46;1.40;99.90
41427;DHT22;27171;51.812;19.514;2023-01-19T10:50:32;1.50;99.90
41427;DHT22;27171;51.812;19.514;2023-01-19T10:53:33;1.50;99.90
41427;DHT22;27171;51.812;19.514;2023-01-19T10:56:36;1.50;99.90
41427;DHT22;27171;51.812;19.514;2023-01-19T11:02:50;1.60;99.90
41427;DHT22;27171;51.812;19.514;2023-01-19T11:05:52;1.60;99.90
41427;DHT22;27171;51.812;19.514;2023-01-19T11:09:14;1.60;99.90
41427;DHT22;27171;51.812;19.514;2023-01-19T11:12:22;1.60;99.90
41427;DHT22;27171;51.812;19.514;2023-01-19T11:15:31;1.60;99.90
41427;DHT22;27171;51.812;19.514;2023-01-19T11:18:37;1.60;99.90
41427;DHT22;27171;51.812;19.514;2023-01-19T11:21:38;1.60;99.90
41427;DHT22;27171;51.812;19.514;2023-01-19T11:24:40;1.50;99.90
41427;DHT22;27171;51.812;19.514;2023-01-19T11:27:49;1.50;99.90
41427;DHT22;27171;51.812;19.514;2023-01-19T11:30:58;1.60;99.90
41427;DHT22;27171;51.812;19.514;2023-01-19T11:34:04;1.50;99.90
41427;DHT22;27171;51.812;19.514;2023-01-19T11:37:27;1.50;99.90
41427;DHT22;27171;51.812;19.514;2023-01-19T11:40:29;1.50;99.90
41427;DHT22;27171;51.812;19.514;2023-01-19T11:43:30;1.50;99.90
41427;DHT22;27171;51.812;19.514;2023-01-19T11:46:32;1.50;99.90
41427;DHT22;27171;51.812;19.514;2023-01-19T11:53:24;1.40;99.90
41427;DHT22;27171;51.812;19.514;2023-01-19T11:56:28;1.40;99.90
41427;DHT22;27171;51.812;19.514;2023-01-19T11:59:29;1.30;99.90
41427;DHT22;27171;51.812;19.514;2023-01-19T12:02:41;1.40;99.90
41427;DHT22;27171;51.812;19.514;2023-01-19T12:05:46;1.40;99.90
41427;DHT22;27171;51.812;19.514;2023-01-19T12:08:59;1.40;99.90
41427;DHT22;27171;51.812;19.514;2023-01-19T12:15:37;1.40;99.90
41427;DHT22;27171;51.812;19.514;2023-01-19T12:18:45;1.40;99.90
41427;DHT22;27171;51.812;19.514;2023-01-19T12:21:48;1.50;99.90
41427;DHT22;27171;51.812;19.514;2023-01-19T12:25:21;1.50;99.90
41427;DHT22;27171;51.812;19.514;2023-01-19T12:28:31;1.50;99.90
41427;DHT22;27171;51.812;19.514;2023-01-19T12:31:33;1.50;99.90
41427;DHT22;27171;51.812;19.514;2023-01-19T12:34:48;1.50;99.90
41427;DHT22;27171;51.812;19.514;2023-01-19T12:37:49;1.50;99.90
41427;DHT22;27171;51.812;19.514;2023-01-19T12:40:51;1.50;99.90
41427;DHT22;27171;51.812;19.514;2023-01-19T12:50:18;1.50;99.90
41427;DHT22;27171;51.812;19.514;2023-01-19T12:53:20;1.50;99.90
41427;DHT22;27171;51.812;19.514;2023-01-19T12:56:30;1.50;99.90
41427;DHT22;27171;51.812;19.514;2023-01-19T12:59:35;1.50;99.90
41427;DHT22;27171;51.812;19.514;2023-01-19T13:02:42;1.50;99.90
41427;DHT22;27171;51.812;19.514;2023-01-19T13:05:48;1.50;99.90
41427;DHT22;27171;51.812;19.514;2023-01-19T13:08:58;1.50;99.90
41427;DHT22;27171;51.812;19.514;2023-01-19T13:15:33;1.60;99.90
41427;DHT22;27171;51.812;19.514;2023-01-19T13:18:39;1.50;99.90
41427;DHT22;27171;51.812;19.514;2023-01-19T13:21:45;1.60;99.90
41427;DHT22;27171;51.812;19.514;2023-01-19T13:25:13;1.60;99.90
41427;DHT22;27171;51.812;19.514;2023-01-19T13:28:30;1.60;99.90
41427;DHT22;27171;51.812;19.514;2023-01-19T13:31:33;1.60;99.90
41427;DHT22;27171;51.812;19.514;2023-01-19T13:34:38;1.60;99.90
41427;DHT22;27171;51.812;19.514;2023-01-19T13:37:42;1.60;99.90
41427;DHT22;27171;51.812;19.514;2023-01-19T13:40:45;1.50;99.90
41427;DHT22;27171;51.812;19.514;2023-01-19T13:43:46;1.50;99.90
41427;DHT22;27171;51.812;19.514;2023-01-19T13:46:50;1.50;99.90
41427;DHT22;27171;51.812;19.514;2023-01-19T13:49:56;1.50;99.90
41427;DHT22;27171;51.812;19.514;2023-01-19T13:52:58;1.40;99.90
41427;DHT22;27171;51.812;19.514;2023-01-19T13:56:14;1.40;99.90
41427;DHT22;27171;51.812;19.514;2023-01-19T13:59:16;1.40;99.90
41427;DHT22;27171;51.812;19.514;2023-01-19T14:02:18;1.40;99.90
41427;DHT22;27171;51.812;19.514;2023-01-19T14:05:24;1.40;99.90
41427;DHT22;27171;51.812;19.514;2023-01-19T14:08:26;1.30;99.90
41427;DHT22;27171;51.812;19.514;2023-01-19T14:11:27;1.30;99.90
41427;DHT22;27171;51.812;19.514;2023-01-19T14:14:28;1.30;99.90
41427;DHT22;27171;51.812;19.514;2023-01-19T14:17:30;1.30;99.90
41427;DHT22;27171;51.812;19.514;2023-01-19T14:20:31;1.30;99.90
41427;DHT22;27171;51.812;19.514;2023-01-19T14:23:50;1.20;99.90
41427;DHT22;27171;51.812;19.514;2023-01-19T14:26:53;1.30;99.90
41427;DHT22;27171;51.812;19.514;2023-01-19T14:30:21;1.30;99.90
41427;DHT22;27171;51.812;19.514;2023-01-19T14:33:33;1.30;99.90
41427;DHT22;27171;51.812;19.514;2023-01-19T14:36:35;1.20;99.90
41427;DHT22;27171;51.812;19.514;2023-01-19T14:39:37;1.30;99.90
41427;DHT22;27171;51.812;19.514;2023-01-19T14:45:45;1.30;99.90
41427;DHT22;27171;51.812;19.514;2023-01-19T14:48:48;1.30;99.90
41427;DHT22;27171;51.812;19.514;2023-01-19T14:51:50;1.30;99.90
41427;DHT22;27171;51.812;19.514;2023-01-19T14:54:52;1.30;99.90
41427;DHT22;27171;51.812;19.514;2023-01-19T14:57:53;1.30;99.90
41427;DHT22;27171;51.812;19.514;2023-01-19T15:00:54;1.30;99.90
41427;DHT22;27171;51.812;19.514;2023-01-19T15:03:56;1.30;99.90
41427;DHT22;27171;51.812;19.514;2023-01-19T15:06:57;1.30;99.90
41427;DHT22;27171;51.812;19.514;2023-01-19T15:09:58;1.30;99.90
41427;DHT22;27171;51.812;19.514;2023-01-19T15:13:00;1.30;99.90
41427;DHT22;27171;51.812;19.514;2023-01-19T15:16:01;1.30;99.90
41427;DHT22;27171;51.812;19.514;2023-01-19T15:19:02;1.30;99.90
41427;DHT22;27171;51.812;19.514;2023-01-19T15:22:08;1.30;99.90
41427;DHT22;27171;51.812;19.514;2023-01-19T15:25:18;1.30;99.90
41427;DHT22;27171;51.812;19.514;2023-01-19T15:28:20;1.30;99.90
41427;DHT22;27171;51.812;19.514;2023-01-19T15:31:22;1.30;99.90
41427;DHT22;27171;51.812;19.514;2023-01-19T15:34:24;1.30;99.90
41427;DHT22;27171;51.812;19.514;2023-01-19T15:37:25;1.30;99.90
41427;DHT22;27171;51.812;19.514;2023-01-19T15:40:26;1.30;99.90
41427;DHT22;27171;51.812;19.514;2023-01-19T15:43:27;1.30;99.90
41427;DHT22;27171;51.812;19.514;2023-01-19T15:46:28;1.30;99.90
41427;DHT22;27171;51.812;19.514;2023-01-19T15:49:29;1.30;99.90
41427;DHT22;27171;51.812;19.514;2023-01-19T15:52:30;1.30;99.90
41427;DHT22;27171;51.812;19.514;2023-01-19T15:55:32;1.30;99.90
41427;DHT22;27171;51.812;19.514;2023-01-19T15:58:33;1.30;99.90
41427;DHT22;27171;51.812;19.514;2023-01-19T16:01:34;1.30;99.90
41427;DHT22;27171;51.812;19.514;2023-01-19T16:04:35;1.30;99.90
41427;DHT22;27171;51.812;19.514;2023-01-19T16:07:37;1.20;99.90
41427;DHT22;27171;51.812;19.514;2023-01-19T16:10:41;1.30;99.90
41427;DHT22;27171;51.812;19.514;2023-01-19T16:13:44;1.20;99.90
41427;DHT22;27171;51.812;19.514;2023-01-19T16:16:46;1.20;99.90
41427;DHT22;27171;51.812;19.514;2023-01-19T16:19:47;1.20;99.90
41427;DHT22;27171;51.812;19.514;2023-01-19T16:22:48;1.20;99.90
41427;DHT22;27171;51.812;19.514;2023-01-19T16:26:00;1.20;99.90
41427;DHT22;27171;51.812;19.514;2023-01-19T16:29:04;1.10;99.90
41427;DHT22;27171;51.812;19.514;2023-01-19T16:32:05;1.10;99.90
41427;DHT22;27171;51.812;19.514;2023-01-19T16:35:07;1.10;99.90
41427;DHT22;27171;51.812;19.514;2023-01-19T16:38:08;1.10;99.90
41427;DHT22;27171;51.812;19.514;2023-01-19T16:41:09;1.10;99.90
41427;DHT22;27171;51.812;19.514;2023-01-19T16:44:11;1.10;99.90
41427;DHT22;27171;51.812;19.514;2023-01-19T16:47:13;1.00;99.90
41427;DHT22;27171;51.812;19.514;2023-01-19T16:50:14;1.10;99.90
41427;DHT22;27171;51.812;19.514;2023-01-19T16:53:15;1.00;99.90
41427;DHT22;27171;51.812;19.514;2023-01-19T16:56:17;1.00;99.90
41427;DHT22;27171;51.812;19.514;2023-01-19T16:59:18;1.00;99.90
41427;DHT22;27171;51.812;19.514;2023-01-19T17:02:19;1.00;99.90
41427;DHT22;27171;51.812;19.514;2023-01-19T17:05:21;1.00;99.90
41427;DHT22;27171;51.812;19.514;2023-01-19T17:08:21;1.00;99.90
41427;DHT22;27171;51.812;19.514;2023-01-19T17:11:27;1.00;99.90
41427;DHT22;27171;51.812;19.514;2023-01-19T17:14:29;1.00;99.90
41427;DHT22;27171;51.812;19.514;2023-01-19T17:17:30;0.90;99.90
41427;DHT22;27171;51.812;19.514;2023-01-19T17:20:31;0.90;99.90
41427;DHT22;27171;51.812;19.514;2023-01-19T17:23:34;0.90;99.90
41427;DHT22;27171;51.812;19.514;2023-01-19T17:26:35;0.80;99.90
41427;DHT22;27171;51.812;19.514;2023-01-19T17:29:36;0.80;99.90
41427;DHT22;27171;51.812;19.514;2023-01-19T17:32:37;0.80;99.90
41427;DHT22;27171;51.812;19.514;2023-01-19T17:35:38;0.80;99.90
41427;DHT22;27171;51.812;19.514;2023-01-19T17:38:40;0.80;99.90
41427;DHT22;27171;51.812;19.514;2023-01-19T17:41:41;0.80;99.90
41427;DHT22;27171;51.812;19.514;2023-01-19T17:44:42;0.70;99.90
41427;DHT22;27171;51.812;19.514;2023-01-19T17:47:43;0.70;99.90
41427;DHT22;27171;51.812;19.514;2023-01-19T17:50:47;0.70;99.90
41427;DHT22;27171;51.812;19.514;2023-01-19T17:53:49;0.80;99.90
41427;DHT22;27171;51.812;19.514;2023-01-19T17:56:50;0.80;99.90
41427;DHT22;27171;51.812;19.514;2023-01-19T17:59:51;0.70;99.90
41427;DHT22;27171;51.812;19.514;2023-01-19T18:02:52;0.70;99.90
41427;DHT22;27171;51.812;19.514;2023-01-19T18:05:54;0.70;99.90
41427;DHT22;27171;51.812;19.514;2023-01-19T18:08:56;0.70;99.90
41427;DHT22;27171;51.812;19.514;2023-01-19T18:11:57;0.70;99.90
41427;DHT22;27171;51.812;19.514;2023-01-19T18:14:58;0.70;99.90
41427;DHT22;27171;51.812;19.514;2023-01-19T18:17:59;0.70;99.90
41427;DHT22;27171;51.812;19.514;2023-01-19T18:21:05;0.80;99.90
41427;DHT22;27171;51.812;19.514;2023-01-19T18:24:07;0.70;99.90
41427;DHT22;27171;51.812;19.514;2023-01-19T18:27:08;0.70;99.90
41427;DHT22;27171;51.812;19.514;2023-01-19T18:30:09;0.70;99.90
41427;DHT22;27171;51.812;19.514;2023-01-19T18:33:11;0.70;99.90
41427;DHT22;27171;51.812;19.514;2023-01-19T18:36:12;0.70;99.90
41427;DHT22;27171;51.812;19.514;2023-01-19T18:39:13;0.70;99.90
41427;DHT22;27171;51.812;19.514;2023-01-19T18:42:14;0.80;99.90
41427;DHT22;27171;51.812;19.514;2023-01-19T18:45:15;0.70;99.90
41427;DHT22;27171;51.812;19.514;2023-01-19T18:48:16;0.70;99.90
41427;DHT22;27171;51.812;19.514;2023-01-19T18:51:17;0.80;99.90
41427;DHT22;27171;51.812;19.514;2023-01-19T18:54:18;0.70;99.90
41427;DHT22;27171;51.812;19.514;2023-01-19T18:57:19;0.70;99.90
41427;DHT22;27171;51.812;19.514;2023-01-19T19:00:21;0.70;99.90
41427;DHT22;27171;51.812;19.514;2023-01-19T19:03:22;0.70;99.90
41427;DHT22;27171;51.812;19.514;2023-01-19T19:06:24;0.70;99.90
41427;DHT22;27171;51.812;19.514;2023-01-19T19:09:26;0.80;99.90
41427;DHT22;27171;51.812;19.514;2023-01-19T19:12:27;0.70;99.90
41427;DHT22;27171;51.812;19.514;2023-01-19T19:15:28;0.80;99.90
41427;DHT22;27171;51.812;19.514;2023-01-19T19:18:33;0.80;99.90
41427;DHT22;27171;51.812;19.514;2023-01-19T19:21:34;0.80;99.90
41427;DHT22;27171;51.812;19.514;2023-01-19T19:24:36;0.80;99.90
41427;DHT22;27171;51.812;19.514;2023-01-19T19:27:37;0.80;99.90
41427;DHT22;27171;51.812;19.514;2023-01-19T19:30:38;0.80;99.90
41427;DHT22;27171;51.812;19.514;2023-01-19T19:33:40;0.80;99.90
41427;DHT22;27171;51.812;19.514;2023-01-19T19:36:41;0.80;99.90
41427;DHT22;27171;51.812;19.514;2023-01-19T19:39:42;0.80;99.90
41427;DHT22;27171;51.812;19.514;2023-01-19T19:42:43;0.80;99.90
41427;DHT22;27171;51.812;19.514;2023-01-19T19:45:58;0.80;99.90
41427;DHT22;27171;51.812;19.514;2023-01-19T19:48:59;0.80;99.90
41427;DHT22;27171;51.812;19.514;2023-01-19T19:52:00;0.80;99.90
41427;DHT22;27171;51.812;19.514;2023-01-19T19:55:01;0.80;99.90
41427;DHT22;27171;51.812;19.514;2023-01-19T19:58:03;0.80;99.90
41427;DHT22;27171;51.812;19.514;2023-01-19T20:01:11;0.80;99.90